createdAt,value
2017-06-06T00:00:13.765Z,16.01
2017-06-06T00:01:15.036Z,16.03
2017-06-06T00:02:16.305Z,15.94
2017-06-06T00:03:17.555Z,16.01
2017-06-06T00:04:18.803Z,15.99
2017-06-06T00:05:20.054Z,15.88
2017-06-06T00:06:21.297Z,15.92
2017-06-06T00:07:22.602Z,16
2017-06-06T00:08:23.857Z,15.94
2017-06-06T00:09:25.138Z,16
2017-06-06T00:10:26.371Z,16
2017-06-06T00:11:27.618Z,15.94
2017-06-06T00:12:28.871Z,15.92
2017-06-06T00:13:30.241Z,15.89
2017-06-06T00:14:31.472Z,15.96
2017-06-06T00:15:32.712Z,15.88
2017-06-06T00:16:33.958Z,15.94
2017-06-06T00:17:35.199Z,15.88
2017-06-06T00:18:36.555Z,15.92
2017-06-06T00:19:37.793Z,15.88
2017-06-06T00:20:39.030Z,15.82
2017-06-06T00:21:40.276Z,15.84
2017-06-06T00:22:41.516Z,15.86
2017-06-06T00:23:42.771Z,15.82
2017-06-06T00:24:44.050Z,15.86
2017-06-06T00:25:45.376Z,15.68
2017-06-06T00:26:46.624Z,15.78
2017-06-06T00:27:47.861Z,15.84
2017-06-06T00:28:49.110Z,15.66
2017-06-06T00:29:50.341Z,15.85
2017-06-06T00:30:51.580Z,15.67
2017-06-06T00:31:52.937Z,15.68
2017-06-06T00:32:54.230Z,15.74
2017-06-06T00:33:55.455Z,15.82
2017-06-06T00:34:56.814Z,15.86
2017-06-06T00:35:58.063Z,15.74
2017-06-06T00:36:59.306Z,15.74
2017-06-06T00:38:00.544Z,15.74
2017-06-06T00:39:01.781Z,15.7
2017-06-06T00:40:03.039Z,15.74
2017-06-06T00:41:04.298Z,15.66
2017-06-06T00:42:05.563Z,15.72
2017-06-06T00:43:06.823Z,15.66
2017-06-06T00:44:08.133Z,15.63
2017-06-06T00:45:09.402Z,15.64
2017-06-06T00:46:10.663Z,15.57
2017-06-06T00:47:11.901Z,15.59
2017-06-06T00:48:13.148Z,15.6
2017-06-06T00:49:14.448Z,15.49
2017-06-06T00:50:15.696Z,15.52
2017-06-06T00:51:16.996Z,15.54
2017-06-06T00:52:18.228Z,15.51
2017-06-06T00:53:19.466Z,15.46
2017-06-06T00:54:20.744Z,15.49
2017-06-06T00:55:21.995Z,15.42
2017-06-06T00:56:23.246Z,15.46
2017-06-06T00:57:24.476Z,15.42
2017-06-06T00:58:25.718Z,15.43
2017-06-06T00:59:26.949Z,15.39
2017-06-06T01:00:28.200Z,15.43
2017-06-06T01:01:29.436Z,15.38
2017-06-06T01:02:30.755Z,15.36
2017-06-06T01:03:32.035Z,15.38
2017-06-06T01:04:33.286Z,15.41
2017-06-06T01:05:34.573Z,15.33
2017-06-06T01:06:35.810Z,15.42
2017-06-06T01:07:37.052Z,15.43
2017-06-06T01:08:38.297Z,15.43
2017-06-06T01:09:39.539Z,15.41
2017-06-06T01:10:40.828Z,15.33
2017-06-06T01:11:42.091Z,15.36
2017-06-06T01:12:43.318Z,15.43
2017-06-06T01:13:44.579Z,15.31
2017-06-06T01:14:45.842Z,15.43
2017-06-06T01:15:47.183Z,15.38
2017-06-06T01:16:48.424Z,15.42
2017-06-06T01:17:49.740Z,15.3
2017-06-06T01:18:50.957Z,15.3
2017-06-06T01:19:52.198Z,15.23
2017-06-06T01:20:53.416Z,15.28
2017-06-06T01:21:54.745Z,15.31
2017-06-06T01:22:56.045Z,15.27
2017-06-06T01:23:57.282Z,15.27
2017-06-06T01:24:58.528Z,15.3
2017-06-06T01:25:59.803Z,15.21
2017-06-06T01:27:01.057Z,15.09
2017-06-06T01:28:02.303Z,15.17
2017-06-06T01:29:03.594Z,15.12
2017-06-06T01:30:04.852Z,15.05
2017-06-06T01:31:06.090Z,15.12
2017-06-06T01:32:07.333Z,15.11
2017-06-06T01:33:08.580Z,15.15
2017-06-06T01:34:09.826Z,15.09
2017-06-06T01:35:11.063Z,15.11
2017-06-06T01:36:12.333Z,15.08
2017-06-06T01:37:13.563Z,15.11
2017-06-06T01:38:14.903Z,15.13
2017-06-06T01:39:16.131Z,15.11
2017-06-06T01:40:17.366Z,15.13
2017-06-06T01:41:18.619Z,15.05
2017-06-06T01:42:19.858Z,15.08
2017-06-06T01:43:21.101Z,15.05
2017-06-06T01:44:22.356Z,15.06
2017-06-06T01:45:23.595Z,14.98
2017-06-06T01:46:24.861Z,14.98
2017-06-06T01:47:26.123Z,15.05
2017-06-06T01:48:27.372Z,15.06
2017-06-06T01:49:28.616Z,14.99
2017-06-06T01:50:29.854Z,14.88
2017-06-06T01:51:31.087Z,14.9
2017-06-06T01:52:32.332Z,14.91
2017-06-06T01:53:33.575Z,15.02
2017-06-06T01:54:34.834Z,15.01
2017-06-06T01:55:36.159Z,15.02
2017-06-06T01:56:37.419Z,15.05
2017-06-06T01:57:38.645Z,15.05
2017-06-06T01:58:39.957Z,15.05
2017-06-06T01:59:41.170Z,15.02
2017-06-06T02:00:42.565Z,14.99
2017-06-06T02:01:43.789Z,15.08
2017-06-06T02:02:45.045Z,15.02
2017-06-06T02:03:46.288Z,15.12
2017-06-06T02:04:47.526Z,15.13
2017-06-06T02:05:48.767Z,15.08
2017-06-06T02:06:50.046Z,15.11
2017-06-06T02:07:51.298Z,15.08
2017-06-06T02:08:52.595Z,15.02
2017-06-06T02:09:53.859Z,15.01
2017-06-06T02:10:55.105Z,15.12
2017-06-06T02:11:56.339Z,14.95
2017-06-06T02:12:57.581Z,15.05
2017-06-06T02:13:58.900Z,15.01
2017-06-06T02:15:00.167Z,15.08
2017-06-06T02:16:01.446Z,15.05
2017-06-06T02:17:02.661Z,15.05
2017-06-06T02:18:03.914Z,15.05
2017-06-06T02:19:05.180Z,15.03
2017-06-06T02:20:06.448Z,15.06
2017-06-06T02:21:07.676Z,14.91
2017-06-06T02:22:08.912Z,14.94
2017-06-06T02:23:10.178Z,15.05
2017-06-06T02:24:11.454Z,14.91
2017-06-06T02:25:12.779Z,14.99
2017-06-06T02:26:14.018Z,14.9
2017-06-06T02:27:15.301Z,14.91
2017-06-06T02:28:16.542Z,15.02
2017-06-06T02:29:17.796Z,14.93
2017-06-06T02:30:19.054Z,14.99
2017-06-06T02:31:20.303Z,15.03
2017-06-06T02:32:21.548Z,14.95
2017-06-06T02:33:22.803Z,14.99
2017-06-06T02:34:24.056Z,15.01
2017-06-06T02:35:25.295Z,14.91
2017-06-06T02:36:26.534Z,14.91
2017-06-06T02:37:27.773Z,14.94
2017-06-06T02:38:29.026Z,14.99
2017-06-06T02:39:30.322Z,15.02
2017-06-06T02:40:31.569Z,15.01
2017-06-06T02:41:32.817Z,14.9
2017-06-06T02:42:34.064Z,14.88
2017-06-06T02:43:35.318Z,14.99
2017-06-06T02:44:36.574Z,15.06
2017-06-06T02:45:37.858Z,15.03
2017-06-06T02:46:39.117Z,15.03
2017-06-06T02:47:40.462Z,15.09
2017-06-06T02:48:41.708Z,15.08
2017-06-06T02:49:42.971Z,15.09
2017-06-06T02:50:44.294Z,15.01
2017-06-06T02:51:45.557Z,14.98
2017-06-06T02:52:46.903Z,15.06
2017-06-06T02:53:48.148Z,15.03
2017-06-06T02:54:49.390Z,15.06
2017-06-06T02:55:50.635Z,15.08
2017-06-06T02:56:51.879Z,15.12
2017-06-06T02:57:53.123Z,15.12
2017-06-06T02:58:54.389Z,15.11
2017-06-06T02:59:55.626Z,15.08
2017-06-06T03:00:56.915Z,15.03
2017-06-06T03:01:58.184Z,15.11
2017-06-06T03:02:59.390Z,15.09
2017-06-06T03:04:00.742Z,15.05
2017-06-06T03:05:01.989Z,15.11
2017-06-06T03:06:03.216Z,15.11
2017-06-06T03:07:04.455Z,15.11
2017-06-06T03:08:05.702Z,15.05
2017-06-06T03:09:06.977Z,14.98
2017-06-06T03:10:08.194Z,15.06
2017-06-06T03:11:09.458Z,15.05
2017-06-06T03:12:10.682Z,15.05
2017-06-06T03:13:11.931Z,14.9
2017-06-06T03:14:13.169Z,14.93
2017-06-06T03:15:14.410Z,14.94
2017-06-06T03:16:15.654Z,14.99
2017-06-06T03:17:16.892Z,14.88
2017-06-06T03:18:18.331Z,14.9
2017-06-06T03:19:19.546Z,15.02
2017-06-06T03:20:20.789Z,14.94
2017-06-06T03:21:22.031Z,15.03
2017-06-06T03:22:23.393Z,14.88
2017-06-06T03:23:24.742Z,15.01
2017-06-06T03:24:26.135Z,14.94
2017-06-06T03:25:27.260Z,15.03
2017-06-06T03:26:28.509Z,14.94
2017-06-06T03:27:29.738Z,14.99
2017-06-06T03:28:30.995Z,15.05
2017-06-06T03:29:32.236Z,15.05
2017-06-06T03:30:33.489Z,15.01
2017-06-06T03:31:34.729Z,15.01
2017-06-06T03:32:35.969Z,14.98
2017-06-06T03:33:37.212Z,14.99
2017-06-06T03:34:38.530Z,15.01
2017-06-06T03:35:39.774Z,15.03
2017-06-06T03:36:41.076Z,14.93
2017-06-06T03:37:42.337Z,14.93
2017-06-06T03:38:43.572Z,15.01
2017-06-06T03:39:44.815Z,14.99
2017-06-06T03:40:46.060Z,14.88
2017-06-06T03:41:47.322Z,14.87
2017-06-06T03:42:48.588Z,14.99
2017-06-06T03:43:49.831Z,14.95
2017-06-06T03:44:51.070Z,14.94
2017-06-06T03:45:52.312Z,14.88
2017-06-06T03:46:53.549Z,14.88
2017-06-06T03:47:54.886Z,14.91
2017-06-06T03:48:56.165Z,14.99
2017-06-06T03:49:57.404Z,14.99
2017-06-06T03:50:58.642Z,15.05
2017-06-06T03:51:59.905Z,15.02
2017-06-06T03:53:01.132Z,15.02
2017-06-06T03:54:02.384Z,15.02
2017-06-06T03:55:03.618Z,15.02
2017-06-06T03:56:04.952Z,15.13
2017-06-06T03:57:06.196Z,15.13
2017-06-06T03:58:07.447Z,15.13
2017-06-06T03:59:08.676Z,15.11
2017-06-06T04:00:09.904Z,15.11
2017-06-06T04:01:11.141Z,15.21
2017-06-06T04:02:12.524Z,15.23
2017-06-06T04:03:13.767Z,15.27
2017-06-06T04:04:14.997Z,15.27
2017-06-06T04:05:16.218Z,15.27
2017-06-06T04:06:17.457Z,15.36
2017-06-06T04:07:18.811Z,15.33
2017-06-06T04:08:20.051Z,15.36
2017-06-06T04:09:21.307Z,15.36
2017-06-06T04:10:22.540Z,15.35
2017-06-06T04:11:23.793Z,15.41
2017-06-06T04:12:25.029Z,15.41
2017-06-06T04:13:26.269Z,15.43
2017-06-06T04:14:27.558Z,15.42
2017-06-06T04:15:28.877Z,15.41
2017-06-06T04:16:30.121Z,15.51
2017-06-06T04:17:31.365Z,15.48
2017-06-06T04:18:32.731Z,15.54
2017-06-06T04:19:33.974Z,15.61
2017-06-06T04:20:35.228Z,15.54
2017-06-06T04:21:36.475Z,15.67
2017-06-06T04:22:37.724Z,15.66
2017-06-06T04:23:38.969Z,15.72
2017-06-06T04:24:40.210Z,15.75
2017-06-06T04:25:41.449Z,15.84
2017-06-06T04:26:42.698Z,15.81
2017-06-06T04:27:43.979Z,15.84
2017-06-06T04:28:45.202Z,15.86
2017-06-06T04:29:46.452Z,15.86
2017-06-06T04:30:47.739Z,15.93
2017-06-06T04:31:48.967Z,15.93
2017-06-06T04:32:50.262Z,15.93
2017-06-06T04:33:51.608Z,16
2017-06-06T04:34:52.862Z,15.96
2017-06-06T04:35:54.120Z,15.96
2017-06-06T04:36:55.339Z,16.03
2017-06-06T04:37:56.590Z,16.12
2017-06-06T04:38:57.855Z,16.14
2017-06-06T04:39:59.121Z,16.18
2017-06-06T04:41:00.366Z,16.33
2017-06-06T04:42:01.629Z,16.25
2017-06-06T04:43:02.851Z,16.34
2017-06-06T04:44:04.109Z,16.4
2017-06-06T04:45:05.334Z,16.38
2017-06-06T04:46:06.758Z,16.49
2017-06-06T04:47:07.983Z,16.48
2017-06-06T04:48:09.220Z,16.52
2017-06-06T04:49:10.475Z,16.56
2017-06-06T04:50:11.696Z,16.52
2017-06-06T04:51:12.963Z,16.63
2017-06-06T04:52:14.210Z,16.59
2017-06-06T04:53:15.555Z,16.56
2017-06-06T04:54:16.794Z,16.6
2017-06-06T04:55:18.040Z,16.62
2017-06-06T04:56:19.282Z,16.7
2017-06-06T04:57:20.524Z,16.74
2017-06-06T04:58:21.787Z,16.73
2017-06-06T04:59:23.033Z,16.78
2017-06-06T05:00:24.281Z,16.77
2017-06-06T05:01:25.546Z,16.8
2017-06-06T05:02:26.795Z,16.81
2017-06-06T05:03:28.023Z,16.81
2017-06-06T05:04:29.280Z,16.88
2017-06-06T05:05:30.595Z,16.85
2017-06-06T05:06:31.834Z,16.93
2017-06-06T05:07:33.141Z,16.93
2017-06-06T05:08:34.388Z,17
2017-06-06T05:09:35.645Z,17.1
2017-06-06T05:10:36.897Z,17.15
2017-06-06T05:11:38.143Z,17.26
2017-06-06T05:12:39.437Z,17.22
2017-06-06T05:13:40.677Z,17.23
2017-06-06T05:14:41.928Z,17.35
2017-06-06T05:15:43.160Z,17.36
2017-06-06T05:16:44.450Z,17.32
2017-06-06T05:17:45.729Z,17.18
2017-06-06T05:18:46.975Z,17.1
2017-06-06T05:19:48.229Z,17.14
2017-06-06T05:20:49.487Z,17.03
2017-06-06T05:21:50.739Z,17.15
2017-06-06T05:22:51.971Z,17.04
2017-06-06T05:23:53.256Z,17.08
2017-06-06T05:24:54.556Z,16.99
2017-06-06T05:25:55.770Z,17.04
2017-06-06T05:26:57.015Z,17.23
2017-06-06T05:27:58.252Z,17.25
2017-06-06T05:28:59.506Z,17.46
2017-06-06T05:30:00.769Z,17.66
2017-06-06T05:31:02.066Z,17.74
2017-06-06T05:32:03.445Z,17.81
2017-06-06T05:33:04.720Z,17.85
2017-06-06T05:34:05.934Z,18.17
2017-06-06T05:35:07.293Z,18.36
2017-06-06T05:36:08.643Z,18.54
2017-06-06T05:37:09.881Z,18.61
2017-06-06T05:38:11.152Z,18.67
2017-06-06T05:39:12.413Z,18.9
2017-06-06T05:40:13.670Z,19.13
2017-06-06T05:41:14.941Z,19.38
2017-06-06T05:42:16.194Z,19.11
2017-06-06T05:43:17.447Z,19.29
2017-06-06T05:44:18.710Z,19.28
2017-06-06T05:45:19.965Z,19.25
2017-06-06T05:46:21.214Z,19.23
2017-06-06T05:47:22.461Z,19.38
2017-06-06T05:48:23.700Z,19.73
2017-06-06T05:49:25.057Z,19.94
2017-06-06T05:50:26.324Z,20.27
2017-06-06T05:51:27.561Z,20.51
2017-06-06T05:52:28.808Z,20.72
2017-06-06T05:53:30.059Z,20.98
2017-06-06T05:54:31.542Z,21.48
2017-06-06T05:55:32.902Z,21.79
2017-06-06T05:56:34.170Z,21.81
2017-06-06T05:57:35.394Z,21.99
2017-06-06T05:58:36.758Z,22.2
2017-06-06T05:59:38.028Z,22.29
2017-06-06T06:00:39.266Z,22.37
2017-06-06T06:01:40.536Z,22.29
2017-06-06T06:02:41.799Z,22.2
2017-06-06T06:03:43.062Z,21.99
2017-06-06T06:04:44.285Z,21.81
2017-06-06T06:05:45.534Z,21.83
2017-06-06T06:06:46.813Z,21.69
2017-06-06T06:07:48.040Z,21.75
2017-06-06T06:08:49.281Z,21.74
2017-06-06T06:09:50.520Z,21.94
2017-06-06T06:10:51.812Z,21.75
2017-06-06T06:11:53.135Z,21.66
2017-06-06T06:12:54.378Z,21.71
2017-06-06T06:13:55.634Z,21.66
2017-06-06T06:14:56.890Z,21.72
2017-06-06T06:15:58.132Z,21.99
2017-06-06T06:16:59.393Z,22.02
2017-06-06T06:18:00.658Z,21.95
2017-06-06T06:19:01.911Z,21.71
2017-06-06T06:20:03.186Z,21.29
2017-06-06T06:21:04.413Z,21.19
2017-06-06T06:22:05.656Z,21.08
2017-06-06T06:23:06.908Z,20.93
2017-06-06T06:24:08.158Z,21.08
2017-06-06T06:25:09.442Z,21.21
2017-06-06T06:26:10.797Z,21.01
2017-06-06T06:27:12.175Z,20.77
2017-06-06T06:28:13.450Z,20.77
2017-06-06T06:29:14.692Z,20.84
2017-06-06T06:30:15.940Z,21.24
2017-06-06T06:31:17.199Z,21.75
2017-06-06T06:32:18.614Z,22.35
2017-06-06T06:33:19.906Z,22.87
2017-06-06T06:34:21.082Z,23.38
2017-06-06T06:35:22.340Z,24.13
2017-06-06T06:36:23.584Z,25.16
2017-06-06T06:37:24.856Z,25.32
2017-06-06T06:38:26.091Z,25.91
2017-06-06T06:39:27.413Z,26.12
2017-06-06T06:40:28.675Z,27.02
2017-06-06T06:41:29.917Z,27.33
2017-06-06T06:42:31.261Z,27.57
2017-06-06T06:43:32.506Z,27.53
2017-06-06T06:44:33.746Z,27.53
2017-06-06T06:45:35.007Z,27.79
2017-06-06T06:46:36.271Z,28.09
2017-06-06T06:47:37.531Z,27.88
2017-06-06T06:48:38.777Z,27.79
2017-06-06T06:49:40.038Z,27.41
2017-06-06T06:50:41.371Z,27.64
2017-06-06T06:51:42.649Z,27.41
2017-06-06T06:52:43.901Z,27.06
2017-06-06T06:53:45.168Z,26.28
2017-06-06T06:54:46.455Z,25.39
2017-06-06T06:55:47.728Z,24.57
2017-06-06T06:56:49.003Z,23.85
2017-06-06T06:57:50.250Z,23.47
2017-06-06T06:58:51.513Z,23.19
2017-06-06T06:59:52.774Z,23.05
2017-06-06T07:00:54.021Z,22.8
2017-06-06T07:01:55.372Z,22.68
2017-06-06T07:02:56.617Z,22.59
2017-06-06T07:03:58.019Z,22.49
2017-06-06T07:04:59.193Z,22.46
2017-06-06T07:06:00.442Z,22.16
2017-06-06T07:07:01.704Z,22.01
2017-06-06T07:08:02.946Z,21.72
2017-06-06T07:09:04.265Z,21.71
2017-06-06T07:10:05.475Z,21.82
2017-06-06T07:11:06.725Z,21.98
2017-06-06T07:12:07.963Z,21.97
2017-06-06T07:13:09.348Z,21.98
2017-06-06T07:14:10.579Z,21.99
2017-06-06T07:15:11.868Z,21.97
2017-06-06T07:16:13.165Z,22.09
2017-06-06T07:17:14.413Z,22.29
2017-06-06T07:18:15.658Z,22.25
2017-06-06T07:19:16.915Z,22.19
2017-06-06T07:20:18.192Z,22.2
2017-06-06T07:21:19.463Z,22.19
2017-06-06T07:22:20.730Z,22.25
2017-06-06T07:23:21.994Z,21.82
2017-06-06T07:24:23.237Z,21.67
2017-06-06T07:25:24.566Z,21.61
2017-06-06T07:26:25.795Z,21.56
2017-06-06T07:27:27.124Z,21.57
2017-06-06T07:28:28.399Z,21.39
2017-06-06T07:29:29.629Z,21.45
2017-06-06T07:30:30.889Z,21.11
2017-06-06T07:31:32.145Z,20.98
2017-06-06T07:32:33.427Z,20.93
2017-06-06T07:33:34.680Z,20.79
2017-06-06T07:34:35.944Z,20.72
2017-06-06T07:35:37.206Z,20.86
2017-06-06T07:36:38.439Z,20.79
2017-06-06T07:37:39.668Z,20.71
2017-06-06T07:38:40.944Z,20.74
2017-06-06T07:39:42.190Z,20.74
2017-06-06T07:40:43.438Z,20.74
2017-06-06T07:41:44.672Z,20.81
2017-06-06T07:42:45.925Z,20.89
2017-06-06T07:43:47.166Z,20.71
2017-06-06T07:44:48.444Z,20.61
2017-06-06T07:45:49.718Z,20.62
2017-06-06T07:46:51.029Z,20.74
2017-06-06T07:47:52.296Z,20.74
2017-06-06T07:48:53.527Z,20.74
2017-06-06T07:49:54.911Z,20.77
2017-06-06T07:50:56.155Z,20.89
2017-06-06T07:51:57.404Z,21.04
2017-06-06T07:52:58.665Z,21.24
2017-06-06T07:53:59.923Z,21.16
2017-06-06T07:55:01.158Z,21.13
2017-06-06T07:56:02.398Z,21.05
2017-06-06T07:57:03.697Z,20.89
2017-06-06T07:58:04.935Z,20.9
2017-06-06T07:59:06.188Z,20.89
2017-06-06T08:00:07.439Z,20.91
2017-06-06T08:01:08.744Z,20.86
2017-06-06T08:02:09.984Z,20.9
2017-06-06T08:03:11.332Z,20.83
2017-06-06T08:04:12.665Z,20.91
2017-06-06T08:05:13.850Z,20.86
2017-06-06T08:06:15.214Z,20.8
2017-06-06T08:07:16.458Z,20.8
2017-06-06T08:08:17.707Z,20.98
2017-06-06T08:09:18.968Z,20.84
2017-06-06T08:10:20.224Z,20.76
2017-06-06T08:11:21.567Z,20.83
2017-06-06T08:12:22.849Z,20.98
2017-06-06T08:13:24.108Z,21.16
2017-06-06T08:14:25.458Z,21.29
2017-06-06T08:15:26.659Z,21.56
2017-06-06T08:16:27.901Z,21.72
2017-06-06T08:17:29.154Z,21.74
2017-06-06T08:18:30.397Z,21.75
2017-06-06T08:19:31.635Z,21.78
2017-06-06T08:20:32.907Z,21.67
2017-06-06T08:21:34.126Z,21.6
2017-06-06T08:22:35.367Z,21.67
2017-06-06T08:23:36.620Z,21.61
2017-06-06T08:24:37.871Z,21.63
2017-06-06T08:25:39.116Z,21.69
2017-06-06T08:26:40.367Z,21.75
2017-06-06T08:27:41.637Z,21.82
2017-06-06T08:28:42.944Z,22.02
2017-06-06T08:29:44.186Z,22.02
2017-06-06T08:30:45.450Z,22.1
2017-06-06T08:31:46.716Z,22.16
2017-06-06T08:32:47.941Z,22.47
2017-06-06T08:33:49.200Z,22.46
2017-06-06T08:34:50.513Z,22.6
2017-06-06T08:35:51.762Z,22.69
2017-06-06T08:36:53.012Z,22.71
2017-06-06T08:37:54.264Z,22.28
2017-06-06T08:38:55.519Z,22.07
2017-06-06T08:39:56.756Z,22.04
2017-06-06T08:40:58.005Z,22.02
2017-06-06T08:41:59.326Z,21.79
2017-06-06T08:43:00.532Z,21.66
2017-06-06T08:44:01.774Z,21.54
2017-06-06T08:45:03.061Z,21.23
2017-06-06T08:46:04.290Z,21.24
2017-06-06T08:47:05.514Z,21.09
2017-06-06T08:48:06.908Z,21.13
2017-06-06T08:49:08.034Z,21.19
2017-06-06T08:50:09.328Z,21.16
2017-06-06T08:51:10.561Z,21.16
2017-06-06T08:52:11.833Z,21.13
2017-06-06T08:53:13.072Z,21.13
2017-06-06T08:54:14.402Z,20.98
2017-06-06T08:55:15.650Z,20.93
2017-06-06T08:56:16.903Z,20.87
2017-06-06T08:57:18.142Z,20.83
2017-06-06T08:58:19.380Z,20.8
2017-06-06T08:59:20.738Z,20.81
2017-06-06T09:00:21.981Z,20.9
2017-06-06T09:01:23.266Z,20.86
2017-06-06T09:02:24.573Z,20.86
2017-06-06T09:03:25.801Z,20.8
2017-06-06T09:04:27.052Z,20.84
2017-06-06T09:05:28.315Z,20.79
2017-06-06T09:06:29.626Z,20.72
2017-06-06T09:07:30.909Z,20.76
2017-06-06T09:08:32.177Z,20.54
2017-06-06T09:09:33.396Z,20.56
2017-06-06T09:10:34.651Z,20.49
2017-06-06T09:11:35.893Z,20.38
2017-06-06T09:12:37.128Z,20.31
2017-06-06T09:13:38.395Z,20.3
2017-06-06T09:14:39.631Z,20.35
2017-06-06T09:15:40.891Z,20.24
2017-06-06T09:16:42.160Z,20.15
2017-06-06T09:17:43.395Z,20.15
2017-06-06T09:18:44.743Z,20.05
2017-06-06T09:19:45.976Z,19.95
2017-06-06T09:20:47.218Z,19.87
2017-06-06T09:21:48.459Z,19.78
2017-06-06T09:22:49.702Z,19.7
2017-06-06T09:23:50.984Z,19.61
2017-06-06T09:24:52.194Z,19.53
2017-06-06T09:25:53.559Z,19.57
2017-06-06T09:26:54.811Z,19.48
2017-06-06T09:27:56.190Z,19.51
2017-06-06T09:28:57.326Z,19.55
2017-06-06T09:29:58.608Z,19.43
2017-06-06T09:30:59.832Z,19.53
2017-06-06T09:32:01.090Z,19.5
2017-06-06T09:33:02.343Z,19.5
2017-06-06T09:34:03.614Z,19.51
2017-06-06T09:35:04.842Z,19.5
2017-06-06T09:36:06.080Z,19.47
2017-06-06T09:37:07.346Z,19.55
2017-06-06T09:38:08.598Z,19.61
2017-06-06T09:39:09.831Z,19.57
2017-06-06T09:40:11.091Z,19.63
2017-06-06T09:41:12.334Z,19.83
2017-06-06T09:42:13.577Z,20.02
2017-06-06T09:43:14.867Z,20.2
2017-06-06T09:44:16.123Z,20.46
2017-06-06T09:45:17.384Z,20.61
2017-06-06T09:46:18.701Z,20.58
2017-06-06T09:47:19.956Z,20.61
2017-06-06T09:48:21.237Z,20.58
2017-06-06T09:49:22.487Z,20.56
2017-06-06T09:50:23.731Z,20.53
2017-06-06T09:51:25.190Z,20.58
2017-06-06T09:52:26.448Z,20.46
2017-06-06T09:53:27.687Z,20.43
2017-06-06T09:54:28.920Z,20.39
2017-06-06T09:55:30.165Z,20.35
2017-06-06T09:56:31.443Z,20.41
2017-06-06T09:57:32.712Z,20.39
2017-06-06T09:58:33.961Z,20.41
2017-06-06T09:59:35.209Z,20.47
2017-06-06T10:00:36.467Z,20.42
2017-06-06T10:01:37.719Z,20.46
2017-06-06T10:02:38.978Z,20.47
2017-06-06T10:03:40.295Z,20.27
2017-06-06T10:04:41.537Z,20
2017-06-06T10:05:42.805Z,19.98
2017-06-06T10:06:44.063Z,19.83
2017-06-06T10:07:45.281Z,19.75
2017-06-06T10:08:46.527Z,19.61
2017-06-06T10:09:47.776Z,19.57
2017-06-06T10:10:49.040Z,19.46
2017-06-06T10:11:50.441Z,19.43
2017-06-06T10:12:51.688Z,19.43
2017-06-06T10:13:53.011Z,19.48
2017-06-06T10:14:54.251Z,19.43
2017-06-06T10:15:55.560Z,19.31
2017-06-06T10:16:56.841Z,19.24
2017-06-06T10:17:58.116Z,19.02
2017-06-06T10:18:59.363Z,18.91
2017-06-06T10:20:00.613Z,18.68
2017-06-06T10:21:01.864Z,18.68
2017-06-06T10:22:03.200Z,18.55
2017-06-06T10:23:04.490Z,18.64
2017-06-06T10:24:05.728Z,18.61
2017-06-06T10:25:06.993Z,18.62
2017-06-06T10:26:08.237Z,18.7
2017-06-06T10:27:09.495Z,18.64
2017-06-06T10:28:10.742Z,18.58
2017-06-06T10:29:11.983Z,18.72
2017-06-06T10:30:13.234Z,18.68
2017-06-06T10:31:14.479Z,18.72
2017-06-06T10:32:15.722Z,18.67
2017-06-06T10:33:16.949Z,18.67
2017-06-06T10:34:18.220Z,18.72
2017-06-06T10:35:19.458Z,18.67
2017-06-06T10:36:20.740Z,18.62
2017-06-06T10:37:21.994Z,18.79
2017-06-06T10:38:23.233Z,18.86
2017-06-06T10:39:24.462Z,18.8
2017-06-06T10:40:25.723Z,18.94
2017-06-06T10:41:27.010Z,19.06
2017-06-06T10:42:28.250Z,19.05
2017-06-06T10:43:29.515Z,19.28
2017-06-06T10:44:30.796Z,19.5
2017-06-06T10:45:32.043Z,19.69
2017-06-06T10:46:33.303Z,19.86
2017-06-06T10:47:34.591Z,20.18
2017-06-06T10:48:35.866Z,20.28
2017-06-06T10:49:37.102Z,20.46
2017-06-06T10:50:38.333Z,20.42
2017-06-06T10:51:39.577Z,20.47
2017-06-06T10:52:40.843Z,20.38
2017-06-06T10:53:42.096Z,20.24
2017-06-06T10:54:43.415Z,20.08
2017-06-06T10:55:44.666Z,19.87
2017-06-06T10:56:45.898Z,19.69
2017-06-06T10:57:47.162Z,19.54
2017-06-06T10:58:48.405Z,19.4
2017-06-06T10:59:49.682Z,19.39
2017-06-06T11:00:51.005Z,18.99
2017-06-06T11:01:52.195Z,18.59
2017-06-06T11:02:53.459Z,18.1
2017-06-06T11:03:54.698Z,17.79
2017-06-06T11:04:55.943Z,17.7
2017-06-06T11:05:57.225Z,17.51
2017-06-06T11:06:58.581Z,17.46
2017-06-06T11:07:59.825Z,17.17
2017-06-06T11:09:01.117Z,17.22
2017-06-06T11:10:02.354Z,17.2
2017-06-06T11:11:03.609Z,17.06
2017-06-06T11:12:04.857Z,17.28
2017-06-06T11:13:06.194Z,17.38
2017-06-06T11:14:07.474Z,17.48
2017-06-06T11:15:08.720Z,17.76
2017-06-06T11:16:09.971Z,17.85
2017-06-06T11:17:11.278Z,17.99
2017-06-06T11:18:12.573Z,18.19
2017-06-06T11:19:13.842Z,18.31
2017-06-06T11:20:15.116Z,18.36
2017-06-06T11:21:16.343Z,18.42
2017-06-06T11:22:17.582Z,18.58
2017-06-06T11:23:18.831Z,18.62
2017-06-06T11:24:20.098Z,18.67
2017-06-06T11:25:21.342Z,18.77
2017-06-06T11:26:22.689Z,18.67
2017-06-06T11:27:23.940Z,18.61
2017-06-06T11:28:25.184Z,18.72
2017-06-06T11:29:26.432Z,18.74
2017-06-06T11:30:27.708Z,18.62
2017-06-06T11:31:28.970Z,18.68
2017-06-06T11:32:30.212Z,18.84
2017-06-06T11:33:31.456Z,18.82
2017-06-06T11:34:32.702Z,18.72
2017-06-06T11:35:33.962Z,18.7
2017-06-06T11:36:35.189Z,18.7
2017-06-06T11:37:36.546Z,18.55
2017-06-06T11:38:37.779Z,18.5
2017-06-06T11:39:39.099Z,18.18
2017-06-06T11:40:40.333Z,18.07
2017-06-06T11:41:41.603Z,17.78
2017-06-06T11:42:42.933Z,17.55
2017-06-06T11:43:44.180Z,17.38
2017-06-06T11:44:45.441Z,17.18
2017-06-06T11:45:46.672Z,17.04
2017-06-06T11:46:47.912Z,17.1
2017-06-06T11:47:49.161Z,17.11
2017-06-06T11:48:50.405Z,17.23
2017-06-06T11:49:51.718Z,17.32
2017-06-06T11:50:53.085Z,17.36
2017-06-06T11:51:54.350Z,17.46
2017-06-06T11:52:55.605Z,17.54
2017-06-06T11:53:56.842Z,17.64
2017-06-06T11:54:58.094Z,17.74
2017-06-06T11:55:59.339Z,17.73
2017-06-06T11:57:00.583Z,17.78
2017-06-06T11:58:01.832Z,17.92
2017-06-06T11:59:03.066Z,17.92
2017-06-06T12:00:04.314Z,17.99
2017-06-06T12:01:05.572Z,18.18
2017-06-06T12:02:06.939Z,18.24
2017-06-06T12:03:08.188Z,18.39
2017-06-06T12:04:09.458Z,18.36
2017-06-06T12:05:10.691Z,18.46
2017-06-06T12:06:11.941Z,18.62
2017-06-06T12:07:13.191Z,18.57
2017-06-06T12:08:14.432Z,18.65
2017-06-06T12:09:15.803Z,18.62
2017-06-06T12:10:17.051Z,18.64
2017-06-06T12:11:18.310Z,18.57
2017-06-06T12:12:19.546Z,18.55
2017-06-06T12:13:20.807Z,18.72
2017-06-06T12:14:22.057Z,18.77
2017-06-06T12:15:23.331Z,18.82
2017-06-06T12:16:24.737Z,18.97
2017-06-06T12:17:25.871Z,19.11
2017-06-06T12:18:27.153Z,19.25
2017-06-06T12:19:28.391Z,19.24
2017-06-06T12:20:29.630Z,19.21
2017-06-06T12:21:30.873Z,19.36
2017-06-06T12:22:32.119Z,19.25
2017-06-06T12:23:33.385Z,19.39
2017-06-06T12:24:34.633Z,19.48
2017-06-06T12:25:35.882Z,19.58
2017-06-06T12:26:37.170Z,19.87
2017-06-06T12:27:38.463Z,20.08
2017-06-06T12:28:39.725Z,20.27
2017-06-06T12:29:40.991Z,20.31
2017-06-06T12:30:42.266Z,20.1
2017-06-06T12:31:43.500Z,20.25
2017-06-06T12:32:44.750Z,20.5
2017-06-06T12:33:45.989Z,20.5
2017-06-06T12:34:47.280Z,20.42
2017-06-06T12:35:48.530Z,20.56
2017-06-06T12:36:49.765Z,20.62
2017-06-06T12:37:51.016Z,20.8
2017-06-06T12:38:52.253Z,21.02
2017-06-06T12:39:53.516Z,21.17
2017-06-06T12:40:54.769Z,21.14
2017-06-06T12:41:56.042Z,21.17
2017-06-06T12:42:57.395Z,21.09
2017-06-06T12:43:58.648Z,21.13
2017-06-06T12:44:59.897Z,21.02
2017-06-06T12:46:01.183Z,20.9
2017-06-06T12:47:02.528Z,20.95
2017-06-06T12:48:03.828Z,20.93
2017-06-06T12:49:05.115Z,20.99
2017-06-06T12:50:06.366Z,21.01
2017-06-06T12:51:07.612Z,20.89
2017-06-06T12:52:08.912Z,20.93
2017-06-06T12:53:10.153Z,20.96
2017-06-06T12:54:11.398Z,20.91
2017-06-06T12:55:12.668Z,20.9
2017-06-06T12:56:13.892Z,20.77
2017-06-06T12:57:15.165Z,20.86
2017-06-06T12:58:16.415Z,20.87
2017-06-06T12:59:17.753Z,20.87
2017-06-06T13:00:19.010Z,20.79
2017-06-06T13:01:20.292Z,20.74
2017-06-06T13:02:21.524Z,20.66
2017-06-06T13:03:22.781Z,20.64
2017-06-06T13:04:24.039Z,20.72
2017-06-06T13:05:25.338Z,20.61
2017-06-06T13:06:26.732Z,20.59
2017-06-06T13:07:27.938Z,20.46
2017-06-06T13:08:29.175Z,20.18
2017-06-06T13:09:30.444Z,20.16
2017-06-06T13:10:31.686Z,20.16
2017-06-06T13:11:33.067Z,20.05